Time;durP1;ratioP1;P1;durP2;ratioP2;P2;SDS_P1;SDS_P2;PMS_P1;PMS_P2;Temp;Humidity;BMP_temperature;BMP_pressure;BME280_temperature;BME280_humidity;BME280_pressure;Samples;Min_cycle;Max_cycle;Signal;HPM_P1;HPM_P2
2023/04/07 00:01:52;;;;;;;30.50;20.60;;;7.80;99.90;;;;;;5020155;28;20038;-87
2023/04/07 00:04:18;;;;;;;30.85;21.13;;;7.80;99.90;;;;;;5018826;28;20092;-86
2023/04/07 00:06:44;;;;;;;30.55;20.63;;;7.80;99.90;;;;;;5003947;28;20558;-86
2023/04/07 00:09:10;;;;;;;31.23;21.60;;;7.80;99.90;;;;;;5000520;28;20136;-86
2023/04/07 00:11:36;;;;;;;30.10;21.08;;;7.80;99.90;;;;;;5000769;28;20041;-86
2023/04/07 00:14:05;;;;;;;30.95;20.58;;;7.80;99.90;;;;;;5016986;28;20041;-86
2023/04/07 00:16:31;;;;;;;30.73;20.52;;;7.80;99.90;;;;;;5004311;28;20075;-86
2023/04/07 00:18:56;;;;;;;32.83;20.88;;;7.80;99.90;;;;;;5003845;28;20499;-86
2023/04/07 00:21:22;;;;;;;34.65;22.10;;;7.80;99.90;;;;;;5019487;28;20049;-86
2023/04/07 00:23:48;;;;;;;30.33;20.98;;;7.80;99.90;;;;;;5001824;28;20183;-86
2023/04/07 00:26:14;;;;;;;35.15;23.20;;;7.80;99.90;;;;;;5019375;28;20118;-86
2023/04/07 00:28:40;;;;;;;35.42;22.92;;;7.80;99.90;;;;;;5016227;28;20073;-86
2023/04/07 00:31:05;;;;;;;34.22;21.58;;;7.80;99.90;;;;;;5017586;28;20041;-86
2023/04/07 00:33:31;;;;;;;35.28;23.38;;;7.90;99.90;;;;;;5034832;28;20041;-86
2023/04/07 00:35:57;;;;;;;35.22;23.45;;;7.80;99.90;;;;;;5003976;28;20406;-86
2023/04/07 00:38:23;;;;;;;35.97;22.48;;;7.80;99.90;;;;;;5018508;28;20438;-87
2023/04/07 00:40:49;;;;;;;35.58;23.63;;;7.80;99.90;;;;;;5020442;28;20049;-86
2023/04/07 00:43:15;;;;;;;35.05;22.65;;;7.90;99.90;;;;;;5004230;28;20048;-86
2023/04/07 00:45:41;;;;;;;33.90;22.52;;;7.80;99.90;;;;;;5019243;28;20045;-86
2023/04/07 00:48:07;;;;;;;39.90;23.92;;;7.90;99.90;;;;;;5004159;28;20041;-85
2023/04/07 00:50:32;;;;;;;34.60;23.90;;;7.90;99.90;;;;;;5020161;28;20083;-86
2023/04/07 00:53:01;;;;;;;32.50;23.42;;;7.90;99.90;;;;;;5000295;28;20352;-86
2023/04/07 00:55:27;;;;;;;36.30;24.45;;;7.90;99.90;;;;;;5035007;28;20041;-86
2023/04/07 00:57:52;;;;;;;36.85;23.92;;;7.90;99.90;;;;;;5018567;28;20042;-86
2023/04/07 01:00:18;;;;;;;37.03;24.40;;;7.90;99.90;;;;;;5000424;28;20065;-85
2023/04/07 01:02:56;;;;;;;33.58;22.45;;;7.90;99.90;;;;;;5002301;28;20049;-86
2023/04/07 01:06:01;;;;;;;37.22;23.77;;;7.90;99.90;;;;;;5019253;28;20351;-85
2023/04/07 01:08:37;;;;;;;40.00;24.50;;;7.90;99.90;;;;;;4991149;28;20179;-85
2023/04/07 01:11:23;;;;;;;37.33;25.27;;;7.90;99.90;;;;;;4962998;28;20041;-86
2023/04/07 01:13:50;;;;;;;31.98;22.42;;;7.90;99.90;;;;;;5001903;28;20379;-85
2023/04/07 01:16:23;;;;;;;34.92;23.42;;;7.90;99.90;;;;;;5004364;28;20041;-86
2023/04/07 01:18:53;;;;;;;35.63;23.83;;;7.90;99.90;;;;;;5020089;28;20498;-86
2023/04/07 01:21:21;;;;;;;37.40;23.33;;;7.90;99.90;;;;;;5021143;28;20081;-86
2023/04/07 01:24:23;;;;;;;37.70;24.02;;;7.90;99.90;;;;;;5003732;28;20095;-86
2023/04/07 01:26:53;;;;;;;34.53;23.33;;;7.90;99.90;;;;;;5000185;28;20045;-86
2023/04/07 01:29:18;;;;;;;35.97;23.65;;;8.00;99.90;;;;;;5003863;28;20062;-86
2023/04/07 01:31:47;;;;;;;34.10;22.95;;;7.90;99.90;;;;;;5022344;28;20033;-86
2023/04/07 01:34:14;;;;;;;37.10;24.60;;;7.90;99.90;;;;;;5003862;28;20077;-86
2023/04/07 01:36:41;;;;;;;38.85;25.70;;;7.90;99.90;;;;;;5023763;28;20262;-86
2023/04/07 01:39:08;;;;;;;31.67;22.65;;;7.90;99.90;;;;;;5024559;28;20057;-86
2023/04/07 01:41:35;;;;;;;31.25;22.35;;;8.00;99.90;;;;;;5027351;28;20037;-90
2023/04/07 01:44:02;;;;;;;36.72;23.25;;;7.90;99.90;;;;;;5009387;28;21134;-91
2023/04/07 01:46:28;;;;;;;39.15;24.45;;;8.00;99.90;;;;;;5010092;28;20116;-90
2023/04/07 01:48:55;;;;;;;36.25;23.30;;;8.00;99.90;;;;;;5009322;28;20037;-90
2023/04/07 01:51:22;;;;;;;36.30;24.25;;;8.00;99.90;;;;;;5009948;28;20037;-89
2023/04/07 01:53:49;;;;;;;34.05;23.00;;;7.90;99.90;;;;;;5009892;28;20040;-90
2023/04/07 01:56:15;;;;;;;36.65;23.60;;;7.90;99.90;;;;;;5007851;28;20136;-91
2023/04/07 01:58:41;;;;;;;34.40;23.30;;;8.00;99.90;;;;;;5020493;28;20063;-90
2023/04/07 02:01:07;;;;;;;36.20;24.05;;;8.00;99.90;;;;;;5026117;28;20535;-90
2023/04/07 02:03:53;;;;;;;40.63;24.05;;;8.00;99.90;;;;;;5009318;28;20040;-90
2023/04/07 02:06:26;;;;;;;31.00;21.95;;;7.90;99.90;;;;;;5010007;28;20037;-91
2023/04/07 02:08:58;;;;;;;34.67;23.15;;;8.00;99.90;;;;;;5035109;28;20096;-90
2023/04/07 02:11:28;;;;;;;39.35;23.58;;;8.00;99.90;;;;;;5008872;28;20111;-90
2023/04/07 02:13:55;;;;;;;38.55;24.02;;;8.00;99.90;;;;;;5006012;28;20045;-91
2023/04/07 02:16:21;;;;;;;35.65;24.23;;;8.00;99.90;;;;;;5008527;28;20163;-90
2023/04/07 02:18:48;;;;;;;39.33;23.83;;;7.90;99.90;;;;;;5010009;28;20042;-90
2023/04/07 02:21:15;;;;;;;34.30;23.42;;;7.90;99.90;;;;;;5008934;28;20045;-90
2023/04/07 02:23:41;;;;;;;34.75;23.52;;;8.00;99.90;;;;;;5006746;28;20045;-90
2023/04/07 02:26:07;;;;;;;36.72;25.10;;;8.00;99.90;;;;;;5008369;28;20029;-89
2023/04/07 02:28:32;;;;;;;34.03;23.02;;;8.00;99.90;;;;;;5007993;28;20045;-90
2023/04/07 02:30:59;;;;;;;36.67;24.05;;;8.00;99.90;;;;;;5025556;28;20041;-90
2023/04/07 02:33:25;;;;;;;35.78;24.60;;;8.00;99.90;;;;;;5025190;28;20045;-90
2023/04/07 02:35:51;;;;;;;35.63;24.40;;;8.00;99.90;;;;;;5008005;28;20042;-90
2023/04/07 02:38:16;;;;;;;33.22;22.95;;;8.00;99.90;;;;;;5024989;28;20117;-90
2023/04/07 02:40:45;;;;;;;36.30;23.30;;;7.90;99.90;;;;;;5020611;28;20396;-90
2023/04/07 02:43:11;;;;;;;35.40;23.58;;;7.90;99.90;;;;;;5024249;28;20067;-90
2023/04/07 02:45:36;;;;;;;37.42;23.65;;;8.00;99.90;;;;;;5025539;28;20037;-90
2023/04/07 02:48:02;;;;;;;39.55;25.13;;;7.90;99.90;;;;;;5008544;28;20118;-90
2023/04/07 02:50:28;;;;;;;34.90;23.05;;;8.00;99.90;;;;;;5008861;28;20051;-90
2023/04/07 02:52:53;;;;;;;34.17;23.70;;;8.00;99.90;;;;;;5008140;28;20061;-90
2023/04/07 02:55:19;;;;;;;36.13;23.70;;;8.00;99.90;;;;;;5007057;28;20204;-91
2023/04/07 02:57:45;;;;;;;34.35;23.05;;;8.00;99.90;;;;;;5007530;28;20494;-89
2023/04/07 03:00:14;;;;;;;34.80;23.23;;;8.00;99.90;;;;;;5007967;28;20068;-90
2023/04/07 03:02:40;;;;;;;37.63;23.60;;;8.00;99.90;;;;;;5008788;28;20084;-89
2023/04/07 03:05:06;;;;;;;35.67;23.77;;;8.00;99.90;;;;;;5009218;28;20037;-89
2023/04/07 03:07:31;;;;;;;32.15;21.98;;;8.00;99.90;;;;;;5006416;28;20095;-91
2023/04/07 03:09:57;;;;;;;35.35;22.88;;;8.00;99.90;;;;;;5008015;28;20387;-90
2023/04/07 03:12:23;;;;;;;40.65;24.42;;;8.00;99.90;;;;;;5006734;28;20121;-90
2023/04/07 03:14:48;;;;;;;37.70;24.38;;;8.00;99.90;;;;;;5005433;28;20033;-90
2023/04/07 03:17:17;;;;;;;40.28;24.50;;;8.00;99.90;;;;;;5007407;28;20046;-91
2023/04/07 03:19:43;;;;;;;35.22;24.33;;;8.00;99.90;;;;;;5007095;28;20041;-90
2023/04/07 03:22:08;;;;;;;32.35;22.23;;;8.00;99.90;;;;;;5009215;28;20056;-90
2023/04/07 03:24:34;;;;;;;38.15;24.20;;;8.00;99.90;;;;;;5022531;28;20034;-91
2023/04/07 03:27:01;;;;;;;34.33;23.92;;;8.00;99.90;;;;;;5005516;28;20511;-90
2023/04/07 03:29:26;;;;;;;38.67;24.63;;;8.00;99.90;;;;;;5009750;28;20045;-89
2023/04/07 03:31:52;;;;;;;38.53;24.33;;;8.00;99.90;;;;;;5008150;28;20069;-89
2023/04/07 03:34:18;;;;;;;35.15;23.08;;;8.00;99.90;;;;;;5005142;28;20145;-89
2023/04/07 03:36:43;;;;;;;33.30;22.58;;;8.00;99.90;;;;;;5005705;28;20053;-89
2023/04/07 03:39:09;;;;;;;35.97;23.35;;;7.90;99.90;;;;;;5000711;28;20195;-90
2023/04/07 03:41:35;;;;;;;30.70;22.48;;;8.00;99.90;;;;;;5006880;28;20175;-89
2023/04/07 03:44:01;;;;;;;38.47;24.27;;;8.00;99.90;;;;;;5006219;28;20093;-90
2023/04/07 03:46:26;;;;;;;36.28;24.05;;;8.00;99.90;;;;;;5006872;28;20022;-89
2023/04/07 03:48:52;;;;;;;33.70;23.30;;;8.00;99.90;;;;;;5006343;28;20183;-89
2023/04/07 03:51:18;;;;;;;40.03;24.00;;;8.00;99.90;;;;;;5006364;28;20041;-90
2023/04/07 03:53:44;;;;;;;35.35;23.92;;;8.00;99.90;;;;;;5006882;28;20116;-90
2023/04/07 03:56:10;;;;;;;37.65;23.70;;;8.00;99.90;;;;;;5006935;28;20056;-90
2023/04/07 03:58:36;;;;;;;40.03;23.98;;;8.00;99.90;;;;;;5005356;28;20617;-89
2023/04/07 04:01:02;;;;;;;35.40;23.67;;;8.00;99.90;;;;;;5007115;28;20076;-89
2023/04/07 04:03:27;;;;;;;34.67;23.10;;;8.00;99.90;;;;;;5021999;28;20065;-89
2023/04/07 04:05:53;;;;;;;33.95;22.92;;;8.00;99.90;;;;;;5007589;28;20041;-90
2023/04/07 04:08:19;;;;;;;35.92;24.02;;;8.00;99.90;;;;;;5005447;28;20176;-90
2023/04/07 04:10:45;;;;;;;32.90;22.05;;;8.00;99.90;;;;;;5006302;28;20049;-90
2023/04/07 04:13:11;;;;;;;35.17;22.85;;;8.00;99.90;;;;;;5005983;28;20105;-90
2023/04/07 04:15:37;;;;;;;38.33;24.25;;;8.00;99.90;;;;;;5004265;28;20064;-90
2023/04/07 04:18:05;;;;;;;38.28;24.40;;;7.90;99.90;;;;;;5006637;28;20035;-90
2023/04/07 04:20:31;;;;;;;35.55;24.05;;;8.00;99.90;;;;;;5004144;28;20129;-89
2023/04/07 04:22:56;;;;;;;41.05;25.55;;;8.00;99.90;;;;;;5006264;28;20167;-89
2023/04/07 04:25:23;;;;;;;38.67;23.30;;;8.00;99.90;;;;;;5005223;28;20418;-90
2023/04/07 04:27:48;;;;;;;34.85;23.77;;;7.90;99.90;;;;;;5022151;28;20048;-89
2023/04/07 04:30:14;;;;;;;40.08;24.65;;;8.00;99.90;;;;;;5020952;28;20030;-89
2023/04/07 04:32:43;;;;;;;33.83;23.00;;;7.90;99.90;;;;;;5007383;28;20077;-90
2023/04/07 04:35:09;;;;;;;35.88;22.88;;;8.00;99.90;;;;;;5005947;28;20610;-90
2023/04/07 04:37:35;;;;;;;36.72;23.80;;;7.90;99.90;;;;;;5004183;28;20133;-89
2023/04/07 04:40:00;;;;;;;35.50;22.45;;;7.90;99.90;;;;;;5005248;28;20049;-91
2023/04/07 04:42:26;;;;;;;37.35;23.90;;;7.90;99.90;;;;;;5022115;28;20434;-90
2023/04/07 04:44:52;;;;;;;34.67;22.60;;;7.90;99.90;;;;;;5004530;28;20402;-89
2023/04/07 04:47:18;;;;;;;34.33;22.40;;;8.00;99.90;;;;;;5005693;28;20035;-90
2023/04/07 04:49:44;;;;;;;38.78;23.98;;;7.90;99.90;;;;;;5005813;28;20173;-89
2023/04/07 04:52:10;;;;;;;32.78;21.52;;;7.90;99.90;;;;;;5005815;28;20045;-89
2023/04/07 04:54:39;;;;;;;35.85;22.83;;;7.90;99.90;;;;;;5006711;28;20128;-91
2023/04/07 04:57:04;;;;;;;30.52;21.70;;;7.90;99.90;;;;;;5007046;28;20191;-89
2023/04/07 04:59:30;;;;;;;40.53;23.98;;;7.90;99.90;;;;;;5009355;28;20036;-90
2023/04/07 05:01:56;;;;;;;31.98;22.00;;;7.90;99.90;;;;;;5006273;28;20135;-89
2023/04/07 05:04:21;;;;;;;30.23;20.73;;;7.90;99.90;;;;;;5025030;28;20071;-89
2023/04/07 05:06:47;;;;;;;34.63;21.90;;;7.90;99.90;;;;;;5004134;28;20037;-90
2023/04/07 05:09:13;;;;;;;33.80;22.08;;;7.90;99.90;;;;;;5019990;28;20397;-89
2023/04/07 05:11:42;;;;;;;31.98;21.02;;;7.90;99.90;;;;;;5005245;28;20301;-90
2023/04/07 05:14:08;;;;;;;30.83;21.65;;;7.90;99.90;;;;;;5006945;28;20403;-90
2023/04/07 05:16:34;;;;;;;30.92;20.55;;;7.90;99.90;;;;;;5005401;28;20045;-90
2023/04/07 05:19:00;;;;;;;32.97;21.95;;;7.90;99.90;;;;;;5007694;28;20099;-89
2023/04/07 05:21:26;;;;;;;31.00;21.33;;;7.90;99.90;;;;;;5005788;28;20458;-90
2023/04/07 05:23:55;;;;;;;32.90;21.75;;;7.90;99.90;;;;;;5007697;28;20053;-89
2023/04/07 05:26:21;;;;;;;30.20;20.70;;;8.00;99.90;;;;;;5039176;28;20128;-89
2023/04/07 05:28:46;;;;;;;30.15;19.45;;;7.90;99.90;;;;;;5005463;28;20132;-89
2023/04/07 05:31:12;;;;;;;32.70;22.10;;;7.90;99.90;;;;;;5007219;28;20293;-90
2023/04/07 05:33:38;;;;;;;29.65;19.23;;;7.90;99.90;;;;;;5009696;28;20030;-90
2023/04/07 05:36:07;;;;;;;28.63;19.50;;;7.90;99.90;;;;;;5005681;28;20067;-90
2023/04/07 05:38:32;;;;;;;29.23;19.02;;;7.90;99.90;;;;;;5005197;28;20540;-91
2023/04/07 05:40:58;;;;;;;30.67;20.00;;;7.90;99.90;;;;;;5021397;28;20046;-90
2023/04/07 05:43:24;;;;;;;30.48;20.88;;;8.00;99.90;;;;;;5004634;28;20029;-90
2023/04/07 05:45:49;;;;;;;30.70;19.83;;;7.90;99.90;;;;;;5004969;28;20109;-90
2023/04/07 05:48:15;;;;;;;29.33;19.92;;;7.90;99.90;;;;;;5021808;28;20040;-90
2023/04/07 05:50:42;;;;;;;27.65;19.00;;;8.00;99.90;;;;;;5002236;28;20041;-89
2023/04/07 05:53:07;;;;;;;25.52;19.27;;;8.00;99.90;;;;;;5021974;28;20038;-89
2023/04/07 05:55:33;;;;;;;30.58;20.33;;;8.00;99.90;;;;;;5021361;28;20524;-91
2023/04/07 05:57:59;;;;;;;31.10;19.77;;;8.00;99.90;;;;;;5005607;28;20315;-89
2023/04/07 06:00:26;;;;;;;28.20;19.55;;;8.10;99.90;;;;;;5022902;28;20044;-89
2023/04/07 06:02:54;;;;;;;27.90;19.25;;;8.00;99.90;;;;;;5019325;28;20345;-90
2023/04/07 06:05:20;;;;;;;29.38;20.13;;;8.10;99.90;;;;;;5005768;28;20030;-89
2023/04/07 06:07:46;;;;;;;29.35;20.10;;;8.10;99.90;;;;;;5005610;28;20537;-89
2023/04/07 06:10:11;;;;;;;29.45;20.27;;;8.10;99.90;;;;;;5003635;28;20045;-89
2023/04/07 06:12:37;;;;;;;29.02;20.23;;;8.10;99.90;;;;;;5003719;28;20172;-89
2023/04/07 06:15:03;;;;;;;29.25;20.80;;;8.10;99.90;;;;;;5021937;28;20037;-89
2023/04/07 06:17:29;;;;;;;27.27;19.02;;;8.10;99.90;;;;;;5006162;28;20049;-89
2023/04/07 06:19:55;;;;;;;29.25;19.95;;;8.10;99.90;;;;;;5007938;28;20041;-89
2023/04/07 06:22:21;;;;;;;27.27;19.27;;;8.10;99.90;;;;;;5009609;28;20052;-90
2023/04/07 06:24:46;;;;;;;29.55;20.13;;;8.10;99.90;;;;;;5008276;28;20148;-90
2023/04/07 06:27:12;;;;;;;29.42;20.42;;;8.10;99.90;;;;;;5038897;28;20041;-89
2023/04/07 06:29:38;;;;;;;29.92;20.02;;;8.20;99.90;;;;;;5009363;28;20128;-90
2023/04/07 06:32:05;;;;;;;29.17;19.70;;;8.10;99.90;;;;;;5007251;28;20041;-90
2023/04/07 06:34:31;;;;;;;27.60;19.95;;;8.10;99.90;;;;;;5006057;28;20057;-89
2023/04/07 06:37:05;;;;;;;28.40;19.02;;;8.20;99.90;;;;;;5007464;28;20053;-90
2023/04/07 06:39:31;;;;;;;25.48;19.58;;;8.30;99.90;;;;;;5008886;28;20167;-90
2023/04/07 06:41:57;;;;;;;28.33;20.40;;;8.40;99.90;;;;;;5007529;28;20625;-89
2023/04/07 06:44:22;;;;;;;25.67;18.73;;;8.30;99.90;;;;;;5006784;28;20068;-89
2023/04/07 06:46:52;;;;;;;25.65;18.92;;;8.40;99.90;;;;;;5007548;28;20132;-89
2023/04/07 06:49:18;;;;;;;28.00;19.60;;;8.50;99.90;;;;;;5008660;28;20537;-89
2023/04/07 06:51:43;;;;;;;27.10;19.65;;;8.50;99.90;;;;;;5005995;28;20084;-89
2023/04/07 06:54:12;;;;;;;26.02;19.00;;;8.50;99.90;;;;;;5009671;28;20045;-89
2023/04/07 06:56:39;;;;;;;24.83;19.10;;;8.50;99.90;;;;;;5006398;28;20116;-89
2023/04/07 06:59:05;;;;;;;26.23;19.10;;;8.50;99.90;;;;;;5037461;28;20167;-89
2023/04/07 07:01:34;;;;;;;26.05;18.85;;;8.60;99.90;;;;;;5005571;28;20121;-89
2023/04/07 07:04:00;;;;;;;23.60;18.08;;;8.70;99.90;;;;;;5036583;28;20452;-89
2023/04/07 07:06:26;;;;;;;27.35;18.77;;;8.80;99.90;;;;;;5021812;28;20045;-90
2023/04/07 07:08:52;;;;;;;24.08;17.98;;;8.80;99.90;;;;;;5010114;28;20532;-90
2023/04/07 07:11:18;;;;;;;23.13;18.15;;;9.00;99.90;;;;;;5009119;28;20551;-89
2023/04/07 07:13:44;;;;;;;24.73;17.70;;;9.00;99.90;;;;;;5022239;28;20132;-90
2023/04/07 07:16:11;;;;;;;22.63;17.83;;;9.00;99.90;;;;;;5008769;28;20045;-89
2023/04/07 07:18:37;;;;;;;25.15;18.08;;;9.10;99.90;;;;;;5008484;28;20042;-89
2023/04/07 07:21:03;;;;;;;23.73;17.38;;;9.10;99.90;;;;;;5008638;28;20038;-89
2023/04/07 07:23:28;;;;;;;22.65;17.08;;;9.00;99.90;;;;;;5022189;28;20037;-90
2023/04/07 07:25:54;;;;;;;23.05;17.55;;;9.10;99.90;;;;;;5007911;28;20047;-90
2023/04/07 07:28:20;;;;;;;24.90;17.25;;;9.10;99.90;;;;;;5023546;28;20037;-91
2023/04/07 07:30:46;;;;;;;22.10;16.50;;;9.10;99.90;;;;;;5024563;28;20048;-90
2023/04/07 07:33:12;;;;;;;22.50;17.63;;;9.30;99.90;;;;;;5006911;28;20040;-91
2023/04/07 07:35:39;;;;;;;20.70;16.00;;;9.20;99.90;;;;;;4996742;28;20041;-91
2023/04/07 07:38:05;;;;;;;21.45;16.65;;;9.10;99.90;;;;;;5008035;28;20058;-89
2023/04/07 07:40:32;;;;;;;20.60;16.73;;;9.30;99.90;;;;;;5006625;28;20160;-90
2023/04/07 07:42:59;;;;;;;19.83;15.85;;;9.30;99.90;;;;;;5004848;28;20041;-90
2023/04/07 07:45:24;;;;;;;19.50;15.00;;;9.40;99.90;;;;;;5005155;28;20029;-91
2023/04/07 07:47:50;;;;;;;19.50;15.23;;;9.40;99.90;;;;;;5037379;28;20102;-90
2023/04/07 07:50:16;;;;;;;19.65;15.25;;;9.50;99.90;;;;;;5006859;28;20051;-90
2023/04/07 07:52:46;;;;;;;20.75;15.32;;;9.50;99.90;;;;;;5006428;28;20060;-90
2023/04/07 07:55:12;;;;;;;18.95;14.55;;;9.50;99.90;;;;;;5023586;28;20394;-91
2023/04/07 07:57:38;;;;;;;18.42;14.65;;;9.50;99.90;;;;;;5003806;28;20044;-90
2023/04/07 08:00:04;;;;;;;18.92;14.93;;;9.40;99.90;;;;;;5021399;28;20494;-90
2023/04/07 08:02:31;;;;;;;18.90;15.20;;;9.50;99.90;;;;;;5007635;28;20049;-91
2023/04/07 08:04:57;;;;;;;19.33;14.10;;;9.40;99.90;;;;;;5004858;28;20045;-89
2023/04/07 08:07:26;;;;;;;17.98;14.27;;;9.60;99.90;;;;;;5021923;28;20052;-90
2023/04/07 08:09:52;;;;;;;16.35;13.32;;;9.60;99.90;;;;;;5007117;28;20053;-91
2023/04/07 08:12:20;;;;;;;17.90;14.30;;;9.60;99.90;;;;;;5003822;28;20037;-90
2023/04/07 08:14:46;;;;;;;17.98;13.40;;;9.60;99.90;;;;;;5008919;28;20054;-91
2023/04/07 08:17:12;;;;;;;16.58;13.13;;;9.70;99.90;;;;;;5007196;28;20034;-90
2023/04/07 08:19:37;;;;;;;15.80;12.38;;;9.60;99.90;;;;;;5004418;28;20038;-90
2023/04/07 08:22:03;;;;;;;17.38;12.73;;;9.60;99.90;;;;;;5023226;28;20335;-90
2023/04/07 08:24:29;;;;;;;17.70;13.18;;;9.70;99.90;;;;;;5006923;28;20048;-90
2023/04/07 08:26:55;;;;;;;17.17;13.00;;;9.80;99.90;;;;;;5005937;28;20332;-89
2023/04/07 08:29:21;;;;;;;15.13;12.13;;;10.00;99.90;;;;;;5004099;28;20053;-91
2023/04/07 08:31:46;;;;;;;16.90;12.63;;;10.00;99.90;;;;;;5009397;28;20065;-90
2023/04/07 08:34:12;;;;;;;15.85;12.43;;;9.90;99.90;;;;;;4984691;28;20030;-91
2023/04/07 08:36:38;;;;;;;15.48;12.48;;;10.10;99.90;;;;;;4983759;28;20042;-90
2023/04/07 08:39:05;;;;;;;14.13;11.50;;;9.90;99.90;;;;;;4985112;28;20048;-90
2023/04/07 08:41:39;;;;;;;13.05;11.15;;;10.10;99.90;;;;;;4985710;28;20092;-90
2023/04/07 08:44:06;;;;;;;14.63;11.75;;;10.10;99.90;;;;;;5000952;28;20033;-90
2023/04/07 08:46:33;;;;;;;13.45;11.32;;;10.50;99.90;;;;;;5003684;28;20045;-91
2023/04/07 08:49:10;;;;;;;13.25;11.52;;;10.60;99.90;;;;;;4988185;28;20045;-90
2023/04/07 08:51:37;;;;;;;17.10;12.38;;;10.90;99.90;;;;;;4983987;28;20081;-90
2023/04/07 08:54:10;;;;;;;15.40;12.38;;;11.00;99.90;;;;;;4983913;28;20038;-89
2023/04/07 08:56:40;;;;;;;15.23;12.30;;;11.00;99.90;;;;;;5000612;28;20049;-90
2023/04/07 08:59:08;;;;;;;15.50;12.57;;;11.30;99.90;;;;;;5001315;28;20095;-91
2023/04/07 09:01:35;;;;;;;14.88;12.55;;;11.30;99.90;;;;;;4982907;28;20050;-91
2023/04/07 09:04:06;;;;;;;16.00;13.10;;;11.40;99.90;;;;;;4983436;28;20065;-90
2023/04/07 09:06:33;;;;;;;15.43;13.02;;;11.40;99.90;;;;;;4982340;28;20049;-90
2023/04/07 09:09:04;;;;;;;15.35;13.40;;;11.70;99.90;;;;;;5001620;28;20337;-90
2023/04/07 09:11:36;;;;;;;16.35;13.40;;;11.80;99.90;;;;;;4981388;28;20076;-90
2023/04/07 09:14:02;;;;;;;15.40;12.43;;;11.80;99.90;;;;;;4998237;28;20399;-89
2023/04/07 09:16:29;;;;;;;16.17;13.15;;;11.90;99.90;;;;;;4985381;28;20052;-90
2023/04/07 09:18:55;;;;;;;19.70;13.55;;;11.50;99.90;;;;;;4986025;28;20065;-90
2023/04/07 09:21:21;;;;;;;16.50;13.18;;;11.40;99.90;;;;;;4983499;28;20388;-90
2023/04/07 09:23:47;;;;;;;15.75;12.85;;;11.30;99.90;;;;;;4984760;28;20034;-89
2023/04/07 09:26:23;;;;;;;15.80;12.38;;;11.30;99.90;;;;;;4984038;28;20045;-90
2023/04/07 09:28:54;;;;;;;15.65;13.07;;;11.20;99.90;;;;;;4985366;28;20056;-90
2023/04/07 09:31:22;;;;;;;15.48;12.80;;;11.20;99.90;;;;;;5000335;28;20053;-90
2023/04/07 09:33:48;;;;;;;18.02;13.48;;;11.40;99.90;;;;;;4998544;28;20068;-89
2023/04/07 09:36:14;;;;;;;17.52;12.82;;;11.40;99.90;;;;;;4982637;28;20134;-89
2023/04/07 09:38:42;;;;;;;18.70;13.77;;;11.30;99.90;;;;;;4998937;28;20058;-85
2023/04/07 09:41:17;;;;;;;15.20;12.52;;;12.00;99.90;;;;;;4982028;28;20057;-86
2023/04/07 09:43:45;;;;;;;20.17;13.45;;;12.20;99.90;;;;;;4981913;28;20042;-85
2023/04/07 09:46:10;;;;;;;15.52;12.68;;;12.10;99.90;;;;;;4996381;28;20487;-85
2023/04/07 09:48:37;;;;;;;15.05;11.75;;;12.00;99.90;;;;;;4998798;28;20062;-85
2023/04/07 09:51:16;;;;;;;16.00;12.05;;;11.90;99.90;;;;;;4995648;28;20133;-86
2023/04/07 09:53:47;;;;;;;14.35;11.23;;;11.70;99.90;;;;;;4985836;28;20487;-85
2023/04/07 09:56:15;;;;;;;14.50;11.45;;;11.40;99.90;;;;;;4988904;28;20049;-90
2023/04/07 09:58:46;;;;;;;15.43;12.18;;;11.40;99.90;;;;;;4988115;28;20201;-89
2023/04/07 10:01:12;;;;;;;14.30;12.20;;;11.20;99.90;;;;;;5003759;28;20141;-89
2023/04/07 10:03:42;;;;;;;14.05;11.80;;;11.40;99.90;;;;;;5003313;28;20038;-89
2023/04/07 10:06:09;;;;;;;15.57;12.68;;;11.10;99.90;;;;;;4990584;28;20029;-89
2023/04/07 10:08:36;;;;;;;17.00;13.27;;;11.10;99.90;;;;;;4990858;28;20034;-90
2023/04/07 10:11:03;;;;;;;15.18;12.90;;;11.10;99.90;;;;;;5008076;28;20049;-89
2023/04/07 10:13:31;;;;;;;15.20;12.27;;;11.10;99.90;;;;;;4985611;28;20038;-91
2023/04/07 10:16:06;;;;;;;17.17;12.93;;;11.20;99.90;;;;;;4989164;28;20111;-89
2023/04/07 10:18:34;;;;;;;68.78;28.92;;;11.30;99.90;;;;;;4986711;28;20034;-90
2023/04/07 10:21:05;;;;;;;14.38;11.02;;;11.60;99.90;;;;;;4986109;28;20296;-90
2023/04/07 10:24:07;;;;;;;12.98;10.60;;;11.60;99.90;;;;;;5003496;28;20037;-90
2023/04/07 10:26:36;;;;;;;14.23;10.82;;;11.80;99.90;;;;;;4986998;28;20054;-90
2023/04/07 10:29:10;;;;;;;15.98;11.15;;;11.80;99.90;;;;;;4987404;28;20122;-90
2023/04/07 10:31:37;;;;;;;16.25;10.93;;;11.90;99.90;;;;;;4999872;28;20054;-90
2023/04/07 10:34:06;;;;;;;12.70;9.60;;;12.10;99.90;;;;;;5000388;28;20056;-89
2023/04/07 10:36:32;;;;;;;9.75;8.48;;;12.20;99.90;;;;;;4988541;28;20411;-89
2023/04/07 10:39:07;;;;;;;10.13;8.80;;;12.20;99.90;;;;;;4984199;28;20081;-90
2023/04/07 10:41:37;;;;;;;12.35;9.50;;;12.10;99.90;;;;;;4988906;28;20050;-91
2023/04/07 10:44:07;;;;;;;10.95;8.00;;;12.30;99.90;;;;;;4990060;28;20511;-88
2023/04/07 10:46:48;;;;;;;12.05;9.68;;;12.40;99.90;;;;;;4990617;28;20068;-89
2023/04/07 10:49:17;;;;;;;11.82;9.77;;;12.00;99.90;;;;;;5006432;28;20061;-90
2023/04/07 10:51:43;;;;;;;11.57;9.25;;;12.10;99.90;;;;;;4990007;28;20167;-91
2023/04/07 10:54:22;;;;;;;10.95;9.85;;;12.10;99.90;;;;;;4987531;28;20551;-90
2023/04/07 10:57:09;;;;;;;11.85;10.32;;;12.00;99.90;;;;;;4985481;28;20052;-91
2023/04/07 10:59:35;;;;;;;13.77;10.05;;;11.80;99.90;;;;;;5004427;28;20033;-90
2023/04/07 11:02:16;;;;;;;12.13;10.45;;;11.90;99.90;;;;;;4986849;28;20038;-91
2023/04/07 11:04:47;;;;;;;14.10;11.45;;;11.80;99.90;;;;;;4986931;28;20053;-91
2023/04/07 11:07:15;;;;;;;12.35;10.20;;;11.90;99.90;;;;;;5005431;28;20038;-90
2023/04/07 11:09:41;;;;;;;14.60;11.10;;;11.90;99.90;;;;;;4999687;28;20045;-90
2023/04/07 11:12:07;;;;;;;12.93;11.05;;;12.00;99.90;;;;;;4986591;28;20060;-90
2023/04/07 11:14:36;;;;;;;13.25;11.35;;;12.20;99.90;;;;;;4987693;28;20069;-90
2023/04/07 11:17:02;;;;;;;13.05;11.40;;;12.30;99.90;;;;;;5004222;28;20049;-90
2023/04/07 11:19:29;;;;;;;13.45;11.35;;;12.60;99.90;;;;;;5004452;28;20042;-90
2023/04/07 11:22:16;;;;;;;13.77;11.63;;;12.90;99.90;;;;;;4987325;28;20045;-90
2023/04/07 11:24:42;;;;;;;13.65;11.13;;;12.90;99.90;;;;;;5001755;28;20044;-91
2023/04/07 11:27:15;;;;;;;13.80;11.07;;;12.70;99.90;;;;;;4987729;28;20042;-90
2023/04/07 11:29:41;;;;;;;12.45;10.63;;;12.60;99.90;;;;;;4985575;28;20074;-91
2023/04/07 11:32:07;;;;;;;14.23;10.90;;;12.60;99.90;;;;;;4986266;28;20064;-90
2023/04/07 11:34:37;;;;;;;12.80;10.10;;;12.60;99.90;;;;;;4991581;28;20065;-90
2023/04/07 11:37:20;;;;;;;11.98;10.55;;;12.70;99.90;;;;;;4986488;28;20099;-90
2023/04/07 11:39:57;;;;;;;12.88;10.85;;;12.70;99.90;;;;;;4985487;28;20045;-89
2023/04/07 11:42:33;;;;;;;11.52;10.10;;;12.80;99.90;;;;;;5002514;28;20042;-90
2023/04/07 11:44:59;;;;;;;12.20;9.88;;;12.80;99.90;;;;;;5002970;28;20037;-90
2023/04/07 11:47:36;;;;;;;10.80;9.65;;;13.10;99.90;;;;;;4988117;28;20037;-91
2023/04/07 11:50:02;;;;;;;10.63;9.52;;;13.20;99.90;;;;;;4999094;28;20037;-90
2023/04/07 11:52:28;;;;;;;11.02;9.05;;;12.90;99.90;;;;;;5002865;28;20045;-90
2023/04/07 11:54:53;;;;;;;9.73;8.73;;;13.10;99.90;;;;;;4988372;28;20050;-90
2023/04/07 11:57:27;;;;;;;10.30;8.68;;;13.10;99.90;;;;;;4985906;28;20053;-90
2023/04/07 12:00:14;;;;;;;9.40;8.40;;;13.30;99.90;;;;;;4999011;28;20531;-90
2023/04/07 12:02:40;;;;;;;9.73;8.73;;;13.30;99.90;;;;;;4986510;28;20636;-91
2023/04/07 12:05:08;;;;;;;9.57;8.50;;;13.60;99.90;;;;;;4982531;28;20590;-91
2023/04/07 12:07:42;;;;;;;10.70;8.88;;;13.90;99.90;;;;;;4999304;28;20065;-90
2023/04/07 12:10:21;;;;;;;9.25;8.32;;;14.30;99.90;;;;;;5003626;28;20042;-91
2023/04/07 12:12:48;;;;;;;9.60;8.40;;;14.60;99.90;;;;;;4986816;28;20793;-90
2023/04/07 12:15:14;;;;;;;9.73;8.40;;;14.50;99.90;;;;;;4987590;28;20431;-90
2023/04/07 12:17:46;;;;;;;10.20;8.40;;;14.40;99.90;;;;;;5003715;28;20041;-90
2023/04/07 12:20:12;;;;;;;9.57;8.55;;;14.80;99.90;;;;;;4985120;28;20129;-89
2023/04/07 12:22:37;;;;;;;8.48;7.55;;;14.70;48.50;;;;;;4987302;28;20210;-90
2023/04/07 12:25:03;;;;;;;8.60;7.55;;;14.60;1.00;;;;;;4983673;28;20268;-91
2023/04/07 12:27:30;;;;;;;8.57;7.60;;;14.40;94.90;;;;;;4986112;28;20496;-90
2023/04/07 12:29:55;;;;;;;9.95;8.00;;;14.50;1.00;;;;;;4987651;28;20033;-89
2023/04/07 12:32:21;;;;;;;9.10;7.70;;;14.30;1.00;;;;;;4986438;28;20042;-92
2023/04/07 12:34:47;;;;;;;8.63;7.72;;;14.70;96.00;;;;;;4987586;28;20048;-91
2023/04/07 12:37:12;;;;;;;8.15;7.25;;;14.60;1.00;;;;;;5002287;28;20076;-90
2023/04/07 12:39:38;;;;;;;8.90;8.00;;;14.70;99.90;;;;;;4986462;28;20100;-91